CheckWX is a tool to help pilots better visualize weather data.  It is not intended as a substitute for an official pre-flight weather briefing.

18:43:58 UTC

EGOV METAR
Anglesey Airport
Angelsey, United Kingdom
Current

54 mins ago

EGOV 241750Z AUTO 19015KT 9999 -RA FEW043/// BKN050/// 10/09 Q0990
Observed
Apr-24 @ 17:50 UTC
Wind
  • 190° at 15 KTS
Visibility
10,000+ meters
Flight Rules
VFR
Conditions
Light Rain
Cloud Levels
  • Few at 4,300' AGL
  • Broken at 5,000' AGL
Temperature
10°C / 50°F
Dewpoint
C / 48°F
Humidity
94%
Altimeter
29.23" Hg
Pressure
989.92 hPa
Previous

2 hours ago

EGOV 241650Z AUTO 19016KT 8000 RA BKN006/// SCT015/// 10/10 Q0990
Observed
Apr-24 @ 16:50 UTC
Wind
  • 190° at 16 KTS
Visibility
7,998 meters
Flight Rules
IFR
Conditions
Rain
Cloud Levels
  • Broken at 600' AGL
  • Scattered at 1,500' AGL
Temperature
10°C / 50°F
Dewpoint
10°C / 50°F
Humidity
100%
Altimeter
29.23" Hg
Pressure
989.92 hPa
Previous

3 hours ago

EGOV 241550Z 20016KT 9999 7000SE RA SCT007 BKN016 OVC022 10/09 Q0990 GRN TEMPO 4000 +RA SCT003 BKN017 YLO2
Observed
Apr-24 @ 15:50 UTC
Wind
  • 200° at 16 KTS
Visibility
10,000+ meters
Flight Rules
MVFR
Conditions
Rain
Cloud Levels
  • Scattered at 700' AGL
  • Broken at 1,600' AGL
  • Overcast at 2,200' AGL
Temperature
10°C / 50°F
Dewpoint
C / 48°F
Humidity
94%
Altimeter
29.23" Hg
Pressure
989.92 hPa